PWSweather.com
Personal Weather Stations
Station Observations
N3SME
Betz Creek, Wilmington Island, Savannah, GA 31410

Betz Creek, Wilmington IslandSavannah, GA 31410

Lat: 32.023021, Lon: -80.959452

Elevation: 15

Station Type: Ambient

High Low Average
Temperature 66.6°F19.2°C 50.4°F10.2°C 58.9°F14.9°C
Dew Point 37.6°F3.1°C 24.9°F-3.9°C 32.6°F0.3°C
Winds 7.6 mph 12.2 kmh Calm Calm 4.0 mph W6.4 kmh W
Wind Gusts 23.5 mph37.8 kmh 7.6 mph12.2 kmh 14.0 mph22.5 kmh
Humidity 60% 25% 41%
Pressure 29.34 in993.6 mb 29.25 in990.5 mb -
Precipitation 0.00 in0.0 mm - -
Hour Temp Dew Point Humidity Winds Wind Gusts Pressure Precip Precip Rate Daily Precip Total
12:02 AM 62.1°F16.7°C 35.3°F1.8°C 39% 6.0 mph NW9.7 kmh NW 18.3 mph29.5 kmh 29.25 in990.5 mb 0.01 in0.3 mm 0.30 in/hr7.6 mm/hr 0.01 in0.3 mm
12:17 AM 61.3°F16.3°C 35.4°F1.9°C 40% 4.5 mph W7.2 kmh W 16.8 mph27.0 kmh 29.25 in990.5 mb 0.01 in0.3 mm 0.00 in/hr0.0 mm/hr 0.01 in0.3 mm
12:32 AM 60.8°F16.0°C 35.6°F2.0°C 41% 5.4 mph W8.7 kmh W 12.1 mph19.5 kmh 29.26 in990.9 mb 0.01 in0.3 mm 0.00 in/hr0.0 mm/hr 0.01 in0.3 mm
12:47 AM 60.3°F15.7°C 35.8°F2.1°C 42% 1.6 mph NW2.6 kmh NW 15.2 mph24.5 kmh 29.26 in990.9 mb 0.00 in0.0 mm 0.00 in/hr0.0 mm/hr 0.01 in0.3 mm
01:02 AM 59.5°F15.3°C 35.9°F2.2°C 43% 5.4 mph NW8.7 kmh NW 9.8 mph15.8 kmh 29.26 in990.9 mb 0.00 in0.0 mm 0.00 in/hr0.0 mm/hr 0.01 in0.3 mm
01:17 AM 58.8°F14.9°C 36.5°F2.5°C 45% 1.6 mph NW2.6 kmh NW 11.4 mph18.3 kmh 29.26 in990.9 mb 0.00 in0.0 mm 0.00 in/hr0.0 mm/hr 0.01 in0.3 mm
01:32 AM 58.3°F14.6°C 36.6°F2.6°C 46% 1.6 mph WNW2.6 kmh WNW 7.6 mph12.2 kmh 29.25 in990.5 mb 0.00 in0.0 mm 0.00 in/hr0.0 mm/hr 0.01 in0.3 mm
01:47 AM 57.7°F14.3°C 36.1°F2.3°C 46% 3.1 mph NW5.0 kmh NW 13.0 mph20.9 kmh 29.25 in990.5 mb 0.00 in0.0 mm 0.00 in/hr0.0 mm/hr 0.01 in0.3 mm
02:02 AM 57.4°F14.1°C 35.8°F2.1°C 46% 6.0 mph NW9.7 kmh NW 13.6 mph21.9 kmh 29.25 in990.5 mb 0.00 in0.0 mm 0.00 in/hr0.0 mm/hr 0.01 in0.3 mm
02:17 AM 57.0°F13.9°C 35.5°F1.9°C 46% 2.2 mph NW3.5 kmh NW 13.6 mph21.9 kmh 29.26 in990.9 mb 0.00 in0.0 mm 0.00 in/hr0.0 mm/hr 0.01 in0.3 mm
02:32 AM 56.7°F13.7°C 34.6°F1.4°C 45% 5.4 mph NW8.7 kmh NW 10.7 mph17.2 kmh 29.25 in990.5 mb 0.00 in0.0 mm 0.00 in/hr0.0 mm/hr 0.01 in0.3 mm
02:47 AM 56.3°F13.5°C 35.4°F1.9°C 47% 3.8 mph WNW6.1 kmh WNW 12.1 mph19.5 kmh 29.25 in990.5 mb 0.00 in0.0 mm 0.00 in/hr0.0 mm/hr 0.01 in0.3 mm
03:02 AM 55.9°F13.3°C 35.1°F1.7°C 47% 4.5 mph WNW7.2 kmh WNW 9.2 mph14.8 kmh 29.25 in990.5 mb 0.00 in0.0 mm 0.00 in/hr0.0 mm/hr 0.01 in0.3 mm
03:17 AM 55.2°F12.9°C 35.0°F1.7°C 48% 4.5 mph WNW7.2 kmh WNW 11.4 mph18.3 kmh 29.25 in990.5 mb 0.00 in0.0 mm 0.00 in/hr0.0 mm/hr 0.01 in0.3 mm
03:32 AM 55.2°F12.9°C 35.6°F2.0°C 49% 1.6 mph NW2.6 kmh NW 10.7 mph17.2 kmh 29.26 in990.9 mb 0.00 in0.0 mm 0.00 in/hr0.0 mm/hr 0.01 in0.3 mm
03:47 AM 54.7°F12.6°C 35.7°F2.1°C 50% 2.2 mph W3.5 kmh W 9.8 mph15.8 kmh 29.26 in990.9 mb 0.00 in0.0 mm 0.00 in/hr0.0 mm/hr 0.01 in0.3 mm
04:02 AM 54.7°F12.6°C 36.2°F2.3°C 51% 1.6 mph WNW2.6 kmh WNW 12.1 mph19.5 kmh 29.25 in990.5 mb 0.00 in0.0 mm 0.00 in/hr0.0 mm/hr 0.01 in0.3 mm
04:17 AM 54.0°F12.2°C 36.1°F2.3°C 52% 1.6 mph W2.6 kmh W 11.4 mph18.3 kmh 29.26 in990.9 mb 0.00 in0.0 mm 0.00 in/hr0.0 mm/hr 0.01 in0.3 mm
04:32 AM 53.6°F12.0°C 36.3°F2.4°C 53% 0.7 mph WNW1.1 kmh WNW 8.3 mph13.4 kmh 29.26 in990.9 mb 0.00 in0.0 mm 0.00 in/hr0.0 mm/hr 0.01 in0.3 mm
04:47 AM 53.2°F11.8°C 35.9°F2.2°C 53% 1.6 mph WNW2.6 kmh WNW 10.7 mph17.2 kmh 29.26 in990.9 mb 0.00 in0.0 mm 0.00 in/hr0.0 mm/hr 0.01 in0.3 mm
05:02 AM 53.1°F11.7°C 36.3°F2.4°C 54% 1.6 mph NW2.6 kmh NW 9.2 mph14.8 kmh 29.26 in990.9 mb 0.00 in0.0 mm 0.00 in/hr0.0 mm/hr 0.01 in0.3 mm
05:17 AM 52.7°F11.5°C 36.0°F2.2°C 54% 4.5 mph WNW7.2 kmh WNW 10.7 mph17.2 kmh 29.27 in991.2 mb 0.00 in0.0 mm 0.00 in/hr0.0 mm/hr 0.01 in0.3 mm
05:32 AM 52.3°F11.3°C 36.1°F2.3°C 55% 1.6 mph W2.6 kmh W 11.4 mph18.3 kmh 29.27 in991.2 mb 0.00 in0.0 mm 0.00 in/hr0.0 mm/hr 0.01 in0.3 mm
05:47 AM 52.0°F11.1°C 35.8°F2.1°C 55% 1.6 mph W2.6 kmh W 10.7 mph17.2 kmh 29.28 in991.5 mb 0.00 in0.0 mm 0.00 in/hr0.0 mm/hr 0.01 in0.3 mm
06:02 AM 51.4°F10.8°C 36.7°F2.6°C 58% 2.2 mph WNW3.5 kmh WNW 9.2 mph14.8 kmh 29.28 in991.5 mb 0.00 in0.0 mm 0.00 in/hr0.0 mm/hr 0.01 in0.3 mm
06:17 AM 50.9°F10.5°C 36.2°F2.3°C 58% 0.7 mph W1.1 kmh W 9.2 mph14.8 kmh 29.28 in991.5 mb 0.00 in0.0 mm 0.00 in/hr0.0 mm/hr 0.01 in0.3 mm
06:32 AM 50.5°F10.3°C 36.4°F2.4°C 59% Calm Calm 9.2 mph14.8 kmh 29.29 in991.9 mb 0.00 in0.0 mm 0.00 in/hr0.0 mm/hr 0.01 in0.3 mm
06:47 AM 50.4°F10.2°C 36.6°F2.6°C 60% 3.1 mph W5.0 kmh W 11.4 mph18.3 kmh 29.29 in991.9 mb 0.00 in0.0 mm 0.00 in/hr0.0 mm/hr 0.01 in0.3 mm
07:02 AM 50.4°F10.2°C 35.7°F2.1°C 58% Calm Calm 11.4 mph18.3 kmh 29.29 in991.9 mb 0.00 in0.0 mm 0.00 in/hr0.0 mm/hr 0.01 in0.3 mm
07:17 AM 50.7°F10.4°C 35.6°F2.0°C 57% 2.2 mph W3.5 kmh W 11.4 mph18.3 kmh 29.29 in991.9 mb 0.00 in0.0 mm 0.00 in/hr0.0 mm/hr 0.01 in0.3 mm
07:32 AM 51.3°F10.7°C 36.6°F2.6°C 58% 2.2 mph WSW3.5 kmh WSW 10.7 mph17.2 kmh 29.30 in992.2 mb 0.00 in0.0 mm 0.00 in/hr0.0 mm/hr 0.01 in0.3 mm
07:47 AM 51.8°F11.0°C 37.1°F2.8°C 58% 2.2 mph W3.5 kmh W 12.1 mph19.5 kmh 29.30 in992.2 mb 0.00 in0.0 mm 0.00 in/hr0.0 mm/hr 0.01 in0.3 mm
08:02 AM 52.2°F11.2°C 36.4°F2.4°C 56% 6.9 mph WNW11.1 kmh WNW 12.1 mph19.5 kmh 29.30 in992.2 mb 0.00 in0.0 mm 0.00 in/hr0.0 mm/hr 0.01 in0.3 mm
08:17 AM 52.9°F11.6°C 37.1°F2.8°C 56% 3.8 mph W6.1 kmh W 10.7 mph17.2 kmh 29.30 in992.2 mb 0.00 in0.0 mm 0.00 in/hr0.0 mm/hr 0.01 in0.3 mm
08:32 AM 54.0°F12.2°C 37.6°F3.1°C 55% 1.6 mph NW2.6 kmh NW 9.2 mph14.8 kmh 29.31 in992.6 mb 0.00 in0.0 mm 0.00 in/hr0.0 mm/hr 0.01 in0.3 mm
08:47 AM 54.0°F12.2°C 36.1°F2.3°C 52% 5.4 mph W8.7 kmh W 14.5 mph23.3 kmh 29.31 in992.6 mb 0.00 in0.0 mm 0.00 in/hr0.0 mm/hr 0.01 in0.3 mm
09:02 AM 54.7°F12.6°C 35.1°F1.7°C 49% 4.5 mph W7.2 kmh W 13.0 mph20.9 kmh 29.31 in992.6 mb 0.00 in0.0 mm 0.00 in/hr0.0 mm/hr 0.01 in0.3 mm
09:17 AM 55.4°F13.0°C 35.2°F1.8°C 48% 4.5 mph WNW7.2 kmh WNW 19.7 mph31.7 kmh 29.30 in992.2 mb 0.00 in0.0 mm 0.00 in/hr0.0 mm/hr 0.01 in0.3 mm
09:32 AM 55.9°F13.3°C 35.1°F1.7°C 47% 4.5 mph W7.2 kmh W 15.9 mph25.6 kmh 29.31 in992.6 mb 0.00 in0.0 mm 0.00 in/hr0.0 mm/hr 0.01 in0.3 mm
09:47 AM 56.8°F13.8°C 35.3°F1.8°C 46% 0.7 mph W1.1 kmh W 14.5 mph23.3 kmh 29.30 in992.2 mb 0.00 in0.0 mm 0.00 in/hr0.0 mm/hr 0.01 in0.3 mm
10:02 AM 57.7°F14.3°C 34.9°F1.6°C 44% 6.0 mph W9.7 kmh W 13.6 mph21.9 kmh 29.30 in992.2 mb 0.00 in0.0 mm 0.00 in/hr0.0 mm/hr 0.01 in0.3 mm
10:17 AM 58.5°F14.7°C 33.6°F0.9°C 41% 2.2 mph W3.5 kmh W 15.2 mph24.5 kmh 29.30 in992.2 mb 0.00 in0.0 mm 0.00 in/hr0.0 mm/hr 0.01 in0.3 mm
10:32 AM 59.5°F15.3°C 32.4°F0.2°C 38% 6.9 mph WNW11.1 kmh WNW 13.6 mph21.9 kmh 29.31 in992.6 mb 0.00 in0.0 mm 0.00 in/hr0.0 mm/hr 0.01 in0.3 mm
10:47 AM 59.4°F15.2°C 32.2°F0.1°C 38% 3.1 mph WNW5.0 kmh WNW 15.2 mph24.5 kmh 29.31 in992.6 mb 0.00 in0.0 mm 0.00 in/hr0.0 mm/hr 0.01 in0.3 mm
11:02 AM 59.9°F15.5°C 31.2°F-0.4°C 36% 5.4 mph WNW8.7 kmh WNW 15.2 mph24.5 kmh 29.31 in992.6 mb 0.00 in0.0 mm 0.00 in/hr0.0 mm/hr 0.01 in0.3 mm
11:17 AM 60.3°F15.7°C 33.0°F0.6°C 38% 3.1 mph WSW5.0 kmh WSW 12.1 mph19.5 kmh 29.31 in992.6 mb 0.00 in0.0 mm 0.00 in/hr0.0 mm/hr 0.01 in0.3 mm
11:32 AM 61.2°F16.2°C 30.7°F-0.7°C 34% 5.4 mph NW8.7 kmh NW 18.3 mph29.5 kmh 29.30 in992.2 mb 0.00 in0.0 mm 0.00 in/hr0.0 mm/hr 0.01 in0.3 mm
11:47 AM 60.6°F15.9°C 32.6°F0.3°C 37% 4.5 mph W7.2 kmh W 16.8 mph27.0 kmh 29.31 in992.6 mb 0.00 in0.0 mm 0.00 in/hr0.0 mm/hr 0.01 in0.3 mm
12:02 PM 61.5°F16.4°C 32.6°F0.3°C 36% 4.5 mph W7.2 kmh W 22.1 mph35.6 kmh 29.31 in992.6 mb 0.00 in0.0 mm 0.00 in/hr0.0 mm/hr 0.01 in0.3 mm
12:17 PM 62.2°F16.8°C 34.7°F1.5°C 38% 3.1 mph WNW5.0 kmh WNW 13.6 mph21.9 kmh 29.30 in992.2 mb 0.00 in0.0 mm 0.00 in/hr0.0 mm/hr 0.01 in0.3 mm
12:32 PM 62.2°F16.8°C 32.4°F0.2°C 35% 6.9 mph WNW11.1 kmh WNW 21.3 mph34.3 kmh 29.30 in992.2 mb 0.00 in0.0 mm 0.00 in/hr0.0 mm/hr 0.01 in0.3 mm
12:47 PM 63.1°F17.3°C 30.6°F-0.8°C 32% 6.9 mph WNW11.1 kmh WNW 15.9 mph25.6 kmh 29.30 in992.2 mb 0.00 in0.0 mm 0.00 in/hr0.0 mm/hr 0.01 in0.3 mm
01:02 PM 63.0°F17.2°C 32.2°F0.1°C 34% 6.9 mph WNW11.1 kmh WNW 19.0 mph30.6 kmh 29.30 in992.2 mb 0.00 in0.0 mm 0.00 in/hr0.0 mm/hr 0.01 in0.3 mm
01:17 PM 64.2°F17.9°C 34.1°F1.2°C 35% 3.8 mph W6.1 kmh W 15.2 mph24.5 kmh 29.29 in991.9 mb 0.00 in0.0 mm 0.00 in/hr0.0 mm/hr 0.01 in0.3 mm
01:32 PM 63.9°F17.7°C 31.2°F-0.4°C 32% 7.6 mph WSW12.2 kmh WSW 18.3 mph29.5 kmh 29.29 in991.9 mb 0.00 in0.0 mm 0.00 in/hr0.0 mm/hr 0.01 in0.3 mm
01:47 PM 64.6°F18.1°C 32.7°F0.4°C 33% 4.5 mph NW7.2 kmh NW 18.3 mph29.5 kmh 29.30 in992.2 mb 0.00 in0.0 mm 0.00 in/hr0.0 mm/hr 0.01 in0.3 mm
02:02 PM 63.9°F17.7°C 33.0°F0.6°C 34% 2.2 mph W3.5 kmh W 16.8 mph27.0 kmh 29.30 in992.2 mb 0.00 in0.0 mm 0.00 in/hr0.0 mm/hr 0.01 in0.3 mm
02:17 PM 64.0°F17.8°C 31.4°F-0.3°C 32% 5.4 mph WNW8.7 kmh WNW 18.3 mph29.5 kmh 29.30 in992.2 mb 0.00 in0.0 mm 0.00 in/hr0.0 mm/hr 0.01 in0.3 mm
02:32 PM 65.3°F18.5°C 30.6°F-0.8°C 30% 5.4 mph NW8.7 kmh NW 17.4 mph28.0 kmh 29.30 in992.2 mb 0.00 in0.0 mm 0.00 in/hr0.0 mm/hr 0.01 in0.3 mm
02:47 PM 65.1°F18.4°C 28.5°F-1.9°C 28% 1.6 mph W2.6 kmh W 22.8 mph36.7 kmh 29.29 in991.9 mb 0.00 in0.0 mm 0.00 in/hr0.0 mm/hr 0.01 in0.3 mm
03:02 PM 65.8°F18.8°C 26.9°F-2.8°C 26% 4.5 mph NW7.2 kmh NW 16.8 mph27.0 kmh 29.30 in992.2 mb 0.00 in0.0 mm 0.00 in/hr0.0 mm/hr 0.01 in0.3 mm
03:17 PM 66.0°F18.9°C 27.1°F-2.7°C 26% 6.0 mph WNW9.7 kmh WNW 23.5 mph37.8 kmh 29.29 in991.9 mb 0.00 in0.0 mm 0.00 in/hr0.0 mm/hr 0.01 in0.3 mm
03:32 PM 65.8°F18.8°C 25.8°F-3.4°C 25% 6.0 mph W9.7 kmh W 19.7 mph31.7 kmh 29.29 in991.9 mb 0.00 in0.0 mm 0.00 in/hr0.0 mm/hr 0.01 in0.3 mm
03:47 PM 64.6°F18.1°C 27.0°F-2.8°C 27% 7.6 mph NW12.2 kmh NW 20.6 mph33.2 kmh 29.29 in991.9 mb 0.00 in0.0 mm 0.00 in/hr0.0 mm/hr 0.01 in0.3 mm
04:02 PM 64.2°F17.9°C 27.7°F-2.4°C 28% 3.8 mph W6.1 kmh W 19.0 mph30.6 kmh 29.29 in991.9 mb 0.00 in0.0 mm 0.00 in/hr0.0 mm/hr 0.01 in0.3 mm
04:17 PM 64.9°F18.3°C 26.2°F-3.2°C 26% 3.8 mph WNW6.1 kmh WNW 19.7 mph31.7 kmh 29.30 in992.2 mb 0.00 in0.0 mm 0.00 in/hr0.0 mm/hr 0.01 in0.3 mm
04:32 PM 66.2°F19.0°C 26.1°F-3.3°C 25% 6.0 mph WNW9.7 kmh WNW 11.4 mph18.3 kmh 29.29 in991.9 mb 0.00 in0.0 mm 0.00 in/hr0.0 mm/hr 0.01 in0.3 mm
04:47 PM 66.6°F19.2°C 26.4°F-3.1°C 25% 1.6 mph NW2.6 kmh NW 17.4 mph28.0 kmh 29.29 in991.9 mb 0.00 in0.0 mm 0.00 in/hr0.0 mm/hr 0.01 in0.3 mm
05:02 PM 65.1°F18.4°C 25.2°F-3.8°C 25% 3.8 mph WNW6.1 kmh WNW 21.3 mph34.3 kmh 29.30 in992.2 mb 0.00 in0.0 mm 0.00 in/hr0.0 mm/hr 0.01 in0.3 mm
05:17 PM 64.9°F18.3°C 26.2°F-3.2°C 26% 5.4 mph WNW8.7 kmh WNW 19.0 mph30.6 kmh 29.30 in992.2 mb 0.00 in0.0 mm 0.00 in/hr0.0 mm/hr 0.01 in0.3 mm
05:32 PM 64.9°F18.3°C 27.3°F-2.6°C 27% 6.0 mph WNW9.7 kmh WNW 20.6 mph33.2 kmh 29.30 in992.2 mb 0.00 in0.0 mm 0.00 in/hr0.0 mm/hr 0.01 in0.3 mm
05:47 PM 63.9°F17.7°C 26.4°F-3.1°C 27% 6.9 mph W11.1 kmh W 19.0 mph30.6 kmh 29.31 in992.6 mb 0.00 in0.0 mm 0.00 in/hr0.0 mm/hr 0.01 in0.3 mm
06:02 PM 64.2°F17.9°C 25.6°F-3.6°C 26% 3.1 mph W5.0 kmh W 22.8 mph36.7 kmh 29.31 in992.6 mb 0.00 in0.0 mm 0.00 in/hr0.0 mm/hr 0.01 in0.3 mm
06:17 PM 63.3°F17.4°C 25.9°F-3.4°C 27% 4.5 mph WNW7.2 kmh WNW 17.4 mph28.0 kmh 29.32 in992.9 mb 0.00 in0.0 mm 0.00 in/hr0.0 mm/hr 0.01 in0.3 mm
06:32 PM 63.3°F17.4°C 24.9°F-3.9°C 26% 6.0 mph NW9.7 kmh NW 14.5 mph23.3 kmh 29.33 in993.2 mb 0.00 in0.0 mm 0.00 in/hr0.0 mm/hr 0.01 in0.3 mm
06:47 PM 63.1°F17.3°C 26.8°F-2.9°C 28% 5.4 mph NW8.7 kmh NW 13.0 mph20.9 kmh 29.33 in993.2 mb 0.00 in0.0 mm 0.00 in/hr0.0 mm/hr 0.01 in0.3 mm
07:02 PM 63.1°F17.3°C 26.8°F-2.9°C 28% 2.2 mph NW3.5 kmh NW 11.4 mph18.3 kmh 29.34 in993.6 mb 0.00 in0.0 mm 0.00 in/hr0.0 mm/hr 0.01 in0.3 mm
07:17 PM 62.2°F16.8°C 27.1°F-2.7°C 29% 2.2 mph NW3.5 kmh NW 9.8 mph15.8 kmh 29.34 in993.6 mb 0.00 in0.0 mm 0.00 in/hr0.0 mm/hr 0.01 in0.3 mm
07:32 PM 61.5°F16.4°C 26.5°F-3.1°C 29% 2.2 mph W3.5 kmh W 9.8 mph15.8 kmh 29.34 in993.6 mb 0.00 in0.0 mm 0.00 in/hr0.0 mm/hr 0.01 in0.3 mm
07:47 PM 60.8°F16.0°C 28.6°F-1.9°C 32% 1.6 mph WNW2.6 kmh WNW 6.9 mph11.1 kmh 29.35 in993.9 mb 0.00 in0.0 mm 0.00 in/hr0.0 mm/hr 0.01 in0.3 mm
08:02 PM 60.4°F15.8°C 29.2°F-1.6°C 33% 0.7 mph WNW1.1 kmh WNW 6.9 mph11.1 kmh 29.36 in994.2 mb 0.00 in0.0 mm 0.00 in/hr0.0 mm/hr 0.01 in0.3 mm
08:17 PM 60.1°F15.6°C 29.7°F-1.3°C 34% 1.6 mph NW2.6 kmh NW 6.9 mph11.1 kmh 29.38 in994.9 mb 0.00 in0.0 mm 0.00 in/hr0.0 mm/hr 0.01 in0.3 mm
08:32 PM 59.7°F15.4°C 29.4°F-1.4°C 34% 2.2 mph NW3.5 kmh NW 6.9 mph11.1 kmh 29.38 in994.9 mb 0.00 in0.0 mm 0.00 in/hr0.0 mm/hr 0.01 in0.3 mm
08:47 PM 59.2°F15.1°C 29.8°F-1.2°C 35% 0.7 mph NW1.1 kmh NW 7.6 mph12.2 kmh 29.39 in995.3 mb 0.00 in0.0 mm 0.00 in/hr0.0 mm/hr 0.01 in0.3 mm
09:02 PM 58.5°F14.7°C 30.7°F-0.7°C 37% 0.7 mph WNW1.1 kmh WNW 6.0 mph9.7 kmh 29.40 in995.6 mb 0.00 in0.0 mm 0.00 in/hr0.0 mm/hr 0.01 in0.3 mm
09:17 PM 57.9°F14.4°C 31.0°F-0.6°C 38% Calm Calm 3.8 mph6.1 kmh 29.41 in995.9 mb 0.00 in0.0 mm 0.00 in/hr0.0 mm/hr 0.01 in0.3 mm
09:32 PM 57.2°F14.0°C 31.8°F-0.1°C 40% 1.6 mph NW2.6 kmh NW 3.8 mph6.1 kmh 29.42 in996.3 mb 0.00 in0.0 mm 0.00 in/hr0.0 mm/hr 0.01 in0.3 mm
09:47 PM 57.0°F13.9°C 32.3°F0.2°C 41% 2.2 mph WNW3.5 kmh WNW 5.4 mph8.7 kmh 29.42 in996.3 mb 0.00 in0.0 mm 0.00 in/hr0.0 mm/hr 0.01 in0.3 mm
10:02 PM 57.0°F13.9°C 32.3°F0.2°C 41% 0.7 mph NW1.1 kmh NW 4.5 mph7.2 kmh 29.43 in996.6 mb 0.00 in0.0 mm 0.00 in/hr0.0 mm/hr 0.01 in0.3 mm
10:17 PM 56.5°F13.6°C 31.8°F-0.1°C 41% 0.7 mph WNW1.1 kmh WNW 3.8 mph6.1 kmh 29.44 in997.0 mb 0.00 in0.0 mm 0.00 in/hr0.0 mm/hr 0.01 in0.3 mm
10:32 PM 56.5°F13.6°C 31.8°F-0.1°C 41% 1.6 mph WNW2.6 kmh WNW 3.1 mph5.0 kmh 29.45 in997.3 mb 0.00 in0.0 mm 0.00 in/hr0.0 mm/hr 0.01 in0.3 mm
10:47 PM 56.3°F13.5°C 31.0°F-0.6°C 40% Calm Calm 4.5 mph7.2 kmh 29.45 in997.3 mb 0.00 in0.0 mm 0.00 in/hr0.0 mm/hr 0.01 in0.3 mm
11:02 PM 56.1°F13.4°C 30.8°F-0.7°C 40% 0.7 mph W1.1 kmh W 5.4 mph8.7 kmh 29.45 in997.3 mb 0.00 in0.0 mm 0.00 in/hr0.0 mm/hr 0.01 in0.3 mm
11:17 PM 55.8°F13.2°C 31.2°F-0.4°C 41% Calm Calm 6.0 mph9.7 kmh 29.45 in997.3 mb 0.00 in0.0 mm 0.00 in/hr0.0 mm/hr 0.01 in0.3 mm
11:32 PM 55.8°F13.2°C 31.2°F-0.4°C 41% Calm Calm 5.4 mph8.7 kmh 29.46 in997.6 mb 0.00 in0.0 mm 0.00 in/hr0.0 mm/hr 0.01 in0.3 mm
11:47 PM 55.9°F13.3°C 30.0°F-1.1°C 39% 1.6 mph W2.6 kmh W 7.6 mph12.2 kmh 29.46 in997.6 mb 0.00 in0.0 mm 0.00 in/hr0.0 mm/hr 0.01 in0.3 mm